Pearcy, Arkansas
Current Conditions -  °F | °C
As of 8:53 PM on Saturday 22 Nov 2014 (Local Time) from KHOT Reporting Station
Overcast Overcast  
Wind Chill: 61°   Ceiling: 2800
Heat Index: 61°   Visibility: 10mi
Dew Point: 55°   Wind: 6mph
Humidity: 81%   Direction: 120°ESE
Pressure: 29.93"   Gusts: NA
Location:  34.43°N, 93.29°W
Report Text: KHOT 230253Z AUTO 12005KT 10SM BKN028 OVC037 16/13 A2993 RMK AO2 SLP132 T01610128 56013
Loading
Personal Weather Stations






























Interactive Weather Map New forecast layout! Learn more

10-Day Weather Forecast

Advertisements
Track Severe Weather on mobile